sensor_id;sensor_type;location;lat;lon;timestamp;pressure;altitude;pressure_sealevel;temperature;humidity
6194;BME280;3130;41.564;23.280;2023-10-31T00:00:34;99114.28;;;13.02;82.91
6194;BME280;3130;41.564;23.280;2023-10-31T00:03:01;99103.78;;;12.93;83.71
6194;BME280;3130;41.564;23.280;2023-10-31T00:05:29;99115.59;;;12.95;83.90
6194;BME280;3130;41.564;23.280;2023-10-31T00:07:56;99107.06;;;12.95;83.84
6194;BME280;3130;41.564;23.280;2023-10-31T00:10:24;99046.66;;;12.36;84.97
6194;BME280;3130;41.564;23.280;2023-10-31T00:12:51;99105.53;;;12.66;85.05
6194;BME280;3130;41.564;23.280;2023-10-31T00:15:18;99103.53;;;12.44;85.95
6194;BME280;3130;41.564;23.280;2023-10-31T00:17:45;99097.09;;;12.51;85.89
6194;BME280;3130;41.564;23.280;2023-10-31T00:20:12;99083.28;;;12.40;85.52
6194;BME280;3130;41.564;23.280;2023-10-31T00:22:41;99106.94;;;12.45;86.32
6194;BME280;3130;41.564;23.280;2023-10-31T00:25:08;99105.13;;;12.47;86.28
6194;BME280;3130;41.564;23.280;2023-10-31T00:27:35;99097.59;;;12.44;86.55
6194;BME280;3130;41.564;23.280;2023-10-31T00:30:02;99092.34;;;12.45;86.85
6194;BME280;3130;41.564;23.280;2023-10-31T00:32:30;99021.13;;;11.95;86.54
6194;BME280;3130;41.564;23.280;2023-10-31T00:34:57;99100.41;;;12.53;85.95
6194;BME280;3130;41.564;23.280;2023-10-31T00:37:24;99090.50;;;12.47;86.23
6194;BME280;3130;41.564;23.280;2023-10-31T00:39:52;99093.28;;;12.57;86.04
6194;BME280;3130;41.564;23.280;2023-10-31T00:42:19;99090.72;;;12.57;85.59
6194;BME280;3130;41.564;23.280;2023-10-31T00:44:46;99082.88;;;12.58;85.44
6194;BME280;3130;41.564;23.280;2023-10-31T00:47:13;99066.66;;;12.58;85.63
6194;BME280;3130;41.564;23.280;2023-10-31T00:49:41;99080.13;;;12.61;85.93
6194;BME280;3130;41.564;23.280;2023-10-31T00:52:08;99086.63;;;12.54;85.96
6194;BME280;3130;41.564;23.280;2023-10-31T00:54:35;99086.28;;;12.46;86.40
6194;BME280;3130;41.564;23.280;2023-10-31T00:57:04;99071.44;;;12.37;87.03
6194;BME280;3130;41.564;23.280;2023-10-31T00:59:31;98916.25;;;11.34;86.52
6194;BME280;3130;41.564;23.280;2023-10-31T01:01:58;99075.56;;;12.40;86.74
6194;BME280;3130;41.564;23.280;2023-10-31T01:04:25;99038.31;;;12.06;87.22
6194;BME280;3130;41.564;23.280;2023-10-31T01:06:52;99075.31;;;12.30;87.42
6194;BME280;3130;41.564;23.280;2023-10-31T01:09:19;99065.66;;;12.34;87.45
6194;BME280;3130;41.564;23.280;2023-10-31T01:11:46;99061.25;;;12.36;87.18
6194;BME280;3130;41.564;23.280;2023-10-31T01:14:14;98969.31;;;11.62;87.78
6194;BME280;3130;41.564;23.280;2023-10-31T01:16:41;99062.66;;;12.27;87.76
6194;BME280;3130;41.564;23.280;2023-10-31T01:19:08;98932.47;;;11.35;88.06
6194;BME280;3130;41.564;23.280;2023-10-31T01:21:36;99057.22;;;11.93;88.54
6194;BME280;3130;41.564;23.280;2023-10-31T01:24:05;99062.59;;;11.89;89.51
6194;BME280;3130;41.564;23.280;2023-10-31T01:26:32;99062.84;;;11.98;89.34
6194;BME280;3130;41.564;23.280;2023-10-31T01:28:59;99064.81;;;11.95;88.98
6194;BME280;3130;41.564;23.280;2023-10-31T01:31:27;99061.06;;;11.86;89.58
6194;BME280;3130;41.564;23.280;2023-10-31T01:33:54;98974.13;;;11.26;90.18
6194;BME280;3130;41.564;23.280;2023-10-31T01:36:24;99059.81;;;11.65;90.50
6194;BME280;3130;41.564;23.280;2023-10-31T01:38:51;99054.81;;;11.64;90.86
6194;BME280;3130;41.564;23.280;2023-10-31T01:41:19;99049.56;;;11.65;90.56
6194;BME280;3130;41.564;23.280;2023-10-31T01:43:46;99026.19;;;11.56;90.17
6194;BME280;3130;41.564;23.280;2023-10-31T01:46:14;99053.00;;;11.78;90.46
6194;BME280;3130;41.564;23.280;2023-10-31T01:48:42;99051.31;;;11.65;90.35
6194;BME280;3130;41.564;23.280;2023-10-31T01:51:09;99035.16;;;11.49;90.75
6194;BME280;3130;41.564;23.280;2023-10-31T01:53:37;98986.59;;;11.32;90.17
6194;BME280;3130;41.564;23.280;2023-10-31T01:56:05;99049.81;;;11.75;90.21
6194;BME280;3130;41.564;23.280;2023-10-31T01:58:34;99048.72;;;11.51;90.42
6194;BME280;3130;41.564;23.280;2023-10-31T02:01:02;98954.47;;;10.99;91.05
6194;BME280;3130;41.564;23.280;2023-10-31T02:03:30;99045.91;;;11.55;91.00
6194;BME280;3130;41.564;23.280;2023-10-31T02:06:00;99039.38;;;11.50;91.07
6194;BME280;3130;41.564;23.280;2023-10-31T02:08:27;99031.94;;;11.45;90.93
6194;BME280;3130;41.564;23.280;2023-10-31T02:10:54;99044.59;;;11.48;91.04
6194;BME280;3130;41.564;23.280;2023-10-31T02:13:21;99043.25;;;11.43;90.91
6194;BME280;3130;41.564;23.280;2023-10-31T02:15:49;99044.97;;;11.42;91.24
6194;BME280;3130;41.564;23.280;2023-10-31T02:18:16;99040.94;;;11.52;91.15
6194;BME280;3130;41.564;23.280;2023-10-31T02:20:43;99043.25;;;11.57;90.87
6194;BME280;3130;41.564;23.280;2023-10-31T02:23:12;99042.31;;;11.58;90.51
6194;BME280;3130;41.564;23.280;2023-10-31T02:25:39;99039.94;;;11.55;90.00
6194;BME280;3130;41.564;23.280;2023-10-31T02:28:06;98960.97;;;11.04;89.62
6194;BME280;3130;41.564;23.280;2023-10-31T02:30:34;98983.41;;;11.14;89.53
6194;BME280;3130;41.564;23.280;2023-10-31T02:33:01;99038.22;;;11.55;89.27
6194;BME280;3130;41.564;23.280;2023-10-31T02:35:28;98997.38;;;11.37;89.20
6194;BME280;3130;41.564;23.280;2023-10-31T02:37:55;99047.72;;;11.67;89.10
6194;BME280;3130;41.564;23.280;2023-10-31T02:40:24;99017.56;;;11.57;88.71
6194;BME280;3130;41.564;23.280;2023-10-31T02:42:51;99003.69;;;11.45;88.63
6194;BME280;3130;41.564;23.280;2023-10-31T02:45:18;99044.41;;;11.65;88.52
6194;BME280;3130;41.564;23.280;2023-10-31T02:47:45;99037.75;;;11.63;88.43
6194;BME280;3130;41.564;23.280;2023-10-31T02:50:12;99037.19;;;11.58;88.29
6194;BME280;3130;41.564;23.280;2023-10-31T02:52:39;99031.03;;;11.60;87.65
6194;BME280;3130;41.564;23.280;2023-10-31T02:55:07;98998.56;;;11.45;87.07
6194;BME280;3130;41.564;23.280;2023-10-31T02:57:35;98948.34;;;11.27;87.04
6194;BME280;3130;41.564;23.280;2023-10-31T03:00:03;99036.59;;;11.81;86.39
6194;BME280;3130;41.564;23.280;2023-10-31T03:02:30;99013.78;;;11.62;85.60
6194;BME280;3130;41.564;23.280;2023-10-31T03:04:57;99033.97;;;11.68;86.17
6194;BME280;3130;41.564;23.280;2023-10-31T03:07:24;99034.13;;;11.65;85.87
6194;BME280;3130;41.564;23.280;2023-10-31T03:09:51;99028.84;;;11.54;86.24
6194;BME280;3130;41.564;23.280;2023-10-31T03:12:19;99037.19;;;11.58;86.63
6194;BME280;3130;41.564;23.280;2023-10-31T03:14:48;99036.38;;;11.57;86.82
6194;BME280;3130;41.564;23.280;2023-10-31T03:17:15;99039.19;;;11.67;86.35
6194;BME280;3130;41.564;23.280;2023-10-31T03:19:42;99027.09;;;11.55;86.73
6194;BME280;3130;41.564;23.280;2023-10-31T03:22:09;99028.09;;;11.52;86.92
6194;BME280;3130;41.564;23.280;2023-10-31T03:24:36;99032.06;;;11.44;86.72
6194;BME280;3130;41.564;23.280;2023-10-31T03:27:03;99034.97;;;11.52;86.91
6194;BME280;3130;41.564;23.280;2023-10-31T03:29:30;99023.03;;;11.51;86.49
6194;BME280;3130;41.564;23.280;2023-10-31T03:31:58;98949.69;;;10.93;85.78
6194;BME280;3130;41.564;23.280;2023-10-31T03:34:25;98953.09;;;10.93;85.75
6194;BME280;3130;41.564;23.280;2023-10-31T03:36:52;99032.41;;;11.38;85.75
6194;BME280;3130;41.564;23.280;2023-10-31T03:39:19;98981.19;;;11.08;85.89
6194;BME280;3130;41.564;23.280;2023-10-31T03:41:46;99035.88;;;11.51;85.45
6194;BME280;3130;41.564;23.280;2023-10-31T03:44:13;99037.91;;;11.60;85.20
6194;BME280;3130;41.564;23.280;2023-10-31T03:46:40;99034.75;;;11.69;84.62
6194;BME280;3130;41.564;23.280;2023-10-31T03:49:09;98875.72;;;10.59;84.52
6194;BME280;3130;41.564;23.280;2023-10-31T03:51:36;99027.69;;;11.32;85.32
6194;BME280;3130;41.564;23.280;2023-10-31T03:54:03;99030.78;;;11.23;86.11
6194;BME280;3130;41.564;23.280;2023-10-31T03:56:30;98979.66;;;10.92;86.92
6194;BME280;3130;41.564;23.280;2023-10-31T03:58:57;99026.75;;;11.19;86.95
6194;BME280;3130;41.564;23.280;2023-10-31T04:01:24;99003.94;;;11.01;86.99
6194;BME280;3130;41.564;23.280;2023-10-31T04:03:51;99013.84;;;11.20;86.89
6194;BME280;3130;41.564;23.280;2023-10-31T04:06:20;99017.22;;;11.21;86.87
6194;BME280;3130;41.564;23.280;2023-10-31T04:08:47;99009.88;;;11.29;86.79
6194;BME280;3130;41.564;23.280;2023-10-31T04:11:14;99022.88;;;11.54;85.84
6194;BME280;3130;41.564;23.280;2023-10-31T04:13:41;99013.81;;;11.34;84.82
6194;BME280;3130;41.564;23.280;2023-10-31T04:16:08;98943.38;;;10.84;84.63
6194;BME280;3130;41.564;23.280;2023-10-31T04:18:36;98956.84;;;11.02;84.55
6194;BME280;3130;41.564;23.280;2023-10-31T04:21:04;98853.84;;;10.53;83.96
6194;BME280;3130;41.564;23.280;2023-10-31T04:23:33;99008.28;;;11.68;84.72
6194;BME280;3130;41.564;23.280;2023-10-31T04:26:00;99021.22;;;11.67;84.70
6194;BME280;3130;41.564;23.280;2023-10-31T04:28:27;98947.41;;;11.42;84.93
6194;BME280;3130;41.564;23.280;2023-10-31T04:30:54;98934.72;;;11.27;84.57
6194;BME280;3130;41.564;23.280;2023-10-31T04:33:21;99010.03;;;11.68;85.04
6194;BME280;3130;41.564;23.280;2023-10-31T04:35:48;99018.41;;;11.57;85.27
6194;BME280;3130;41.564;23.280;2023-10-31T04:38:15;99019.81;;;11.75;85.18
6194;BME280;3130;41.564;23.280;2023-10-31T04:40:43;99019.75;;;11.49;84.90
6194;BME280;3130;41.564;23.280;2023-10-31T04:43:10;99021.66;;;11.45;85.12
6194;BME280;3130;41.564;23.280;2023-10-31T04:45:37;99028.38;;;11.34;86.08
6194;BME280;3130;41.564;23.280;2023-10-31T04:48:05;98897.44;;;10.53;86.53
6194;BME280;3130;41.564;23.280;2023-10-31T04:50:32;99028.69;;;11.15;87.48
6194;BME280;3130;41.564;23.280;2023-10-31T04:52:59;99019.34;;;10.87;87.86
6194;BME280;3130;41.564;23.280;2023-10-31T04:55:26;99025.69;;;10.95;88.43
6194;BME280;3130;41.564;23.280;2023-10-31T04:57:55;99027.50;;;11.07;88.37
6194;BME280;3130;41.564;23.280;2023-10-31T05:00:23;99023.56;;;11.02;88.46
6194;BME280;3130;41.564;23.280;2023-10-31T05:02:50;99034.00;;;10.85;89.17
6194;BME280;3130;41.564;23.280;2023-10-31T05:05:17;99033.63;;;10.77;89.77
6194;BME280;3130;41.564;23.280;2023-10-31T05:07:45;99046.44;;;10.77;89.16
6194;BME280;3130;41.564;23.280;2023-10-31T05:10:12;99046.91;;;10.83;88.82
6194;BME280;3130;41.564;23.280;2023-10-31T05:12:39;99050.78;;;11.04;88.47
6194;BME280;3130;41.564;23.280;2023-10-31T05:15:09;99013.19;;;10.89;88.08
6194;BME280;3130;41.564;23.280;2023-10-31T05:17:35;99041.25;;;10.92;87.28
6194;BME280;3130;41.564;23.280;2023-10-31T05:20:02;99021.91;;;10.87;86.86
6194;BME280;3130;41.564;23.280;2023-10-31T05:22:29;99030.34;;;11.02;86.95
6194;BME280;3130;41.564;23.280;2023-10-31T05:24:56;99025.94;;;11.18;86.73
6194;BME280;3130;41.564;23.280;2023-10-31T05:27:24;99025.84;;;11.06;86.51
6194;BME280;3130;41.564;23.280;2023-10-31T05:29:51;99003.13;;;10.86;86.37
6194;BME280;3130;41.564;23.280;2023-10-31T05:32:19;99032.00;;;11.03;85.77
6194;BME280;3130;41.564;23.280;2023-10-31T05:34:46;99032.34;;;11.11;85.57
6194;BME280;3130;41.564;23.280;2023-10-31T05:37:13;99032.44;;;11.10;84.98
6194;BME280;3130;41.564;23.280;2023-10-31T05:39:40;99039.78;;;11.02;84.99
6194;BME280;3130;41.564;23.280;2023-10-31T05:42:07;99044.09;;;11.15;84.75
6194;BME280;3130;41.564;23.280;2023-10-31T05:44:34;99046.91;;;11.25;84.49
6194;BME280;3130;41.564;23.280;2023-10-31T05:47:02;99040.25;;;11.22;84.20
6194;BME280;3130;41.564;23.280;2023-10-31T05:49:30;99021.34;;;11.09;84.05
6194;BME280;3130;41.564;23.280;2023-10-31T05:51:57;99041.94;;;11.36;84.35
6194;BME280;3130;41.564;23.280;2023-10-31T05:54:24;99026.75;;;11.33;84.27
6194;BME280;3130;41.564;23.280;2023-10-31T05:56:52;99023.72;;;11.54;84.21
6194;BME280;3130;41.564;23.280;2023-10-31T05:59:19;99029.78;;;11.53;83.86
6194;BME280;3130;41.564;23.280;2023-10-31T06:01:46;99050.09;;;11.70;84.08
6194;BME280;3130;41.564;23.280;2023-10-31T06:04:15;99048.16;;;11.74;84.01
6194;BME280;3130;41.564;23.280;2023-10-31T06:06:43;99056.97;;;11.96;83.67
6194;BME280;3130;41.564;23.280;2023-10-31T06:09:10;99053.31;;;12.00;83.67
6194;BME280;3130;41.564;23.280;2023-10-31T06:11:40;99060.34;;;11.84;83.09
6194;BME280;3130;41.564;23.280;2023-10-31T06:14:07;99057.41;;;11.90;83.28
6194;BME280;3130;41.564;23.280;2023-10-31T06:16:39;99053.94;;;12.03;83.01
6194;BME280;3130;41.564;23.280;2023-10-31T06:19:07;99069.56;;;12.27;82.35
6194;BME280;3130;41.564;23.280;2023-10-31T06:21:34;99066.31;;;12.37;82.00
6194;BME280;3130;41.564;23.280;2023-10-31T06:24:04;98997.06;;;11.96;82.05
6194;BME280;3130;41.564;23.280;2023-10-31T06:26:31;99003.44;;;12.29;81.58
6194;BME280;3130;41.564;23.280;2023-10-31T06:28:58;99069.34;;;12.81;80.69
6194;BME280;3130;41.564;23.280;2023-10-31T06:31:25;99061.28;;;13.00;80.42
6194;BME280;3130;41.564;23.280;2023-10-31T06:33:52;99046.72;;;13.11;79.53
6194;BME280;3130;41.564;23.280;2023-10-31T06:36:19;99056.28;;;13.34;78.84
6194;BME280;3130;41.564;23.280;2023-10-31T06:38:46;99058.19;;;13.55;78.63
6194;BME280;3130;41.564;23.280;2023-10-31T06:41:15;99062.50;;;13.67;78.06
6194;BME280;3130;41.564;23.280;2023-10-31T06:43:41;99059.19;;;13.78;77.53
6194;BME280;3130;41.564;23.280;2023-10-31T06:46:08;99061.69;;;13.90;76.89
6194;BME280;3130;41.564;23.280;2023-10-31T06:48:36;99064.44;;;14.00;77.22
6194;BME280;3130;41.564;23.280;2023-10-31T06:51:03;99030.56;;;13.93;76.95
6194;BME280;3130;41.564;23.280;2023-10-31T06:53:30;99061.22;;;14.21;76.98
6194;BME280;3130;41.564;23.280;2023-10-31T06:55:57;99058.19;;;14.61;76.86
6194;BME280;3130;41.564;23.280;2023-10-31T06:58:25;99051.59;;;15.46;74.45
6194;BME280;3130;41.564;23.280;2023-10-31T07:00:53;99045.66;;;16.41;71.48
6194;BME280;3130;41.564;23.280;2023-10-31T07:03:20;99009.66;;;17.09;67.49
6194;BME280;3130;41.564;23.280;2023-10-31T07:05:47;99005.34;;;18.26;62.84
6194;BME280;3130;41.564;23.280;2023-10-31T07:08:14;99043.22;;;19.48;57.63
6194;BME280;3130;41.564;23.280;2023-10-31T07:10:41;99049.50;;;20.69;52.02
6194;BME280;3130;41.564;23.280;2023-10-31T07:13:08;99055.25;;;21.16;49.04
6194;BME280;3130;41.564;23.280;2023-10-31T07:15:37;99059.41;;;20.83;49.03
6194;BME280;3130;41.564;23.280;2023-10-31T07:18:05;99060.69;;;20.62;50.92
6194;BME280;3130;41.564;23.280;2023-10-31T07:20:33;98979.16;;;21.28;49.05
6194;BME280;3130;41.564;23.280;2023-10-31T07:23:01;99043.38;;;24.38;41.70
6194;BME280;3130;41.564;23.280;2023-10-31T07:25:28;99042.06;;;28.00;33.97
6194;BME280;3130;41.564;23.280;2023-10-31T07:27:55;99015.38;;;31.78;27.43
6194;BME280;3130;41.564;23.280;2023-10-31T07:30:22;99043.63;;;34.14;24.33
6194;BME280;3130;41.564;23.280;2023-10-31T07:32:51;98953.75;;;34.21;23.54
6194;BME280;3130;41.564;23.280;2023-10-31T07:35:18;99036.75;;;36.09;22.07
6194;BME280;3130;41.564;23.280;2023-10-31T07:37:45;99041.16;;;37.60;20.19
6194;BME280;3130;41.564;23.280;2023-10-31T07:40:13;99043.75;;;39.46;18.13
6194;BME280;3130;41.564;23.280;2023-10-31T07:42:40;99044.38;;;38.98;18.37
6194;BME280;3130;41.564;23.280;2023-10-31T07:45:08;99045.19;;;39.04;18.52
6194;BME280;3130;41.564;23.280;2023-10-31T07:47:36;99037.63;;;40.47;17.21
6194;BME280;3130;41.564;23.280;2023-10-31T07:50:05;99033.03;;;41.38;16.40
6194;BME280;3130;41.564;23.280;2023-10-31T07:52:32;99023.53;;;40.22;16.94
6194;BME280;3130;41.564;23.280;2023-10-31T07:54:59;99018.84;;;38.21;18.60
6194;BME280;3130;41.564;23.280;2023-10-31T07:57:26;98895.59;;;36.69;19.93
6194;BME280;3130;41.564;23.280;2023-10-31T07:59:53;99006.25;;;36.05;20.40
6194;BME280;3130;41.564;23.280;2023-10-31T08:02:20;99001.31;;;34.95;21.64
6194;BME280;3130;41.564;23.280;2023-10-31T08:04:47;98999.63;;;36.70;20.27
6194;BME280;3130;41.564;23.280;2023-10-31T08:07:16;99003.88;;;38.60;18.37
6194;BME280;3130;41.564;23.280;2023-10-31T08:09:43;98999.59;;;40.20;17.25
6194;BME280;3130;41.564;23.280;2023-10-31T08:12:10;98893.41;;;40.74;16.03
6194;BME280;3130;41.564;23.280;2023-10-31T08:14:37;99003.56;;;40.28;16.87
6194;BME280;3130;41.564;23.280;2023-10-31T08:17:04;98983.84;;;39.46;17.25
6194;BME280;3130;41.564;23.280;2023-10-31T08:19:32;98988.44;;;37.15;19.49
6194;BME280;3130;41.564;23.280;2023-10-31T08:21:59;98969.84;;;32.97;23.47
6194;BME280;3130;41.564;23.280;2023-10-31T08:24:27;98982.16;;;29.56;27.64
6194;BME280;3130;41.564;23.280;2023-10-31T08:26:54;98977.44;;;27.64;31.29
6194;BME280;3130;41.564;23.280;2023-10-31T08:29:21;98974.06;;;26.27;33.86
6194;BME280;3130;41.564;23.280;2023-10-31T08:31:48;98957.56;;;24.98;36.00
6194;BME280;3130;41.564;23.280;2023-10-31T08:34:16;98981.13;;;24.54;37.79
6194;BME280;3130;41.564;23.280;2023-10-31T08:36:43;98972.41;;;23.95;39.57
6194;BME280;3130;41.564;23.280;2023-10-31T08:39:10;98986.44;;;23.71;40.40
6194;BME280;3130;41.564;23.280;2023-10-31T08:41:49;98988.09;;;23.34;41.44
6194;BME280;3130;41.564;23.280;2023-10-31T08:44:16;98983.28;;;22.99;42.29
6194;BME280;3130;41.564;23.280;2023-10-31T08:46:43;98974.66;;;22.67;43.10
6194;BME280;3130;41.564;23.280;2023-10-31T08:49:10;98977.66;;;22.40;44.12
6194;BME280;3130;41.564;23.280;2023-10-31T08:51:37;98972.56;;;22.31;44.06
6194;BME280;3130;41.564;23.280;2023-10-31T08:54:05;98961.91;;;22.16;45.13
6194;BME280;3130;41.564;23.280;2023-10-31T08:56:32;98938.88;;;21.88;45.07
6194;BME280;3130;41.564;23.280;2023-10-31T08:59:01;98945.59;;;22.06;45.43
6194;BME280;3130;41.564;23.280;2023-10-31T09:01:28;98947.25;;;22.23;44.85
6194;BME280;3130;41.564;23.280;2023-10-31T09:03:55;98935.50;;;22.27;45.00
6194;BME280;3130;41.564;23.280;2023-10-31T09:06:24;98930.59;;;22.40;44.66
6194;BME280;3130;41.564;23.280;2023-10-31T09:08:51;98911.31;;;22.33;44.73
6194;BME280;3130;41.564;23.280;2023-10-31T09:11:18;98933.03;;;22.41;44.62
6194;BME280;3130;41.564;23.280;2023-10-31T09:13:45;98917.66;;;22.31;44.48
6194;BME280;3130;41.564;23.280;2023-10-31T09:16:13;98909.19;;;22.29;43.93
6194;BME280;3130;41.564;23.280;2023-10-31T09:18:40;98904.97;;;22.36;44.37
6194;BME280;3130;41.564;23.280;2023-10-31T09:21:09;98885.19;;;22.33;44.59
6194;BME280;3130;41.564;23.280;2023-10-31T09:23:36;98892.53;;;22.45;44.37
6194;BME280;3130;41.564;23.280;2023-10-31T09:26:03;98896.59;;;22.56;44.59
6194;BME280;3130;41.564;23.280;2023-10-31T09:28:30;98889.06;;;22.61;44.25
6194;BME280;3130;41.564;23.280;2023-10-31T09:30:57;98869.59;;;22.63;44.26
6194;BME280;3130;41.564;23.280;2023-10-31T09:33:26;98890.78;;;22.76;43.89
6194;BME280;3130;41.564;23.280;2023-10-31T09:35:53;98772.88;;;22.01;43.71
6194;BME280;3130;41.564;23.280;2023-10-31T09:38:20;98878.69;;;22.75;43.73
6194;BME280;3130;41.564;23.280;2023-10-31T09:40:47;98860.59;;;22.74;43.30
6194;BME280;3130;41.564;23.280;2023-10-31T09:43:16;98864.44;;;22.86;43.33
6194;BME280;3130;41.564;23.280;2023-10-31T09:45:43;98868.16;;;22.99;43.78
6194;BME280;3130;41.564;23.280;2023-10-31T09:48:11;98851.81;;;22.97;43.02
6194;BME280;3130;41.564;23.280;2023-10-31T09:50:41;98851.94;;;23.04;43.01
6194;BME280;3130;41.564;23.280;2023-10-31T09:53:08;98815.72;;;22.93;42.48
6194;BME280;3130;41.564;23.280;2023-10-31T09:55:36;98833.31;;;23.07;42.29
6194;BME280;3130;41.564;23.280;2023-10-31T09:58:04;98832.81;;;23.11;42.42
6194;BME280;3130;41.564;23.280;2023-10-31T10:00:31;98788.25;;;22.89;42.78
6194;BME280;3130;41.564;23.280;2023-10-31T10:02:58;98814.78;;;23.16;43.19
6194;BME280;3130;41.564;23.280;2023-10-31T10:05:26;98816.19;;;23.27;42.94
6194;BME280;3130;41.564;23.280;2023-10-31T10:07:56;98813.81;;;23.40;43.04
6194;BME280;3130;41.564;23.280;2023-10-31T10:10:24;98800.69;;;23.25;42.60
6194;BME280;3130;41.564;23.280;2023-10-31T10:12:51;98813.88;;;23.32;42.97
6194;BME280;3130;41.564;23.280;2023-10-31T10:15:18;98797.84;;;23.35;43.24
6194;BME280;3130;41.564;23.280;2023-10-31T10:17:48;98796.84;;;23.36;43.17
6194;BME280;3130;41.564;23.280;2023-10-31T10:20:16;98791.53;;;23.43;43.05
6194;BME280;3130;41.564;23.280;2023-10-31T10:22:44;98787.41;;;23.49;43.41
6194;BME280;3130;41.564;23.280;2023-10-31T10:25:13;98765.53;;;23.42;43.10
6194;BME280;3130;41.564;23.280;2023-10-31T10:27:41;98648.19;;;22.64;43.19
6194;BME280;3130;41.564;23.280;2023-10-31T10:30:09;98770.13;;;23.40;43.15
6194;BME280;3130;41.564;23.280;2023-10-31T10:32:36;98782.28;;;23.55;43.27
6194;BME280;3130;41.564;23.280;2023-10-31T10:35:05;98754.06;;;23.21;43.51
6194;BME280;3130;41.564;23.280;2023-10-31T10:37:32;98776.91;;;23.35;43.54
6194;BME280;3130;41.564;23.280;2023-10-31T10:40:00;98764.91;;;23.40;43.90
6194;BME280;3130;41.564;23.280;2023-10-31T10:42:31;98767.81;;;23.45;43.65
6194;BME280;3130;41.564;23.280;2023-10-31T10:45:02;98764.22;;;23.60;43.77
6194;BME280;3130;41.564;23.280;2023-10-31T10:47:31;98758.91;;;23.91;43.42
6194;BME280;3130;41.564;23.280;2023-10-31T10:49:59;98757.41;;;24.11;42.70
6194;BME280;3130;41.564;23.280;2023-10-31T10:52:29;98753.69;;;24.05;42.81
6194;BME280;3130;41.564;23.280;2023-10-31T10:55:04;98749.91;;;24.22;42.70
6194;BME280;3130;41.564;23.280;2023-10-31T10:57:38;98714.19;;;24.21;42.47
6194;BME280;3130;41.564;23.280;2023-10-31T11:00:07;98731.53;;;24.37;42.33
6194;BME280;3130;41.564;23.280;2023-10-31T11:02:39;98724.66;;;24.36;42.43
6194;BME280;3130;41.564;23.280;2023-10-31T11:05:07;98725.56;;;24.43;42.54
6194;BME280;3130;41.564;23.280;2023-10-31T11:07:34;98711.13;;;24.47;42.27
6194;BME280;3130;41.564;23.280;2023-10-31T11:10:02;98711.63;;;24.56;42.09
6194;BME280;3130;41.564;23.280;2023-10-31T11:12:30;98705.13;;;24.52;42.34
6194;BME280;3130;41.564;23.280;2023-10-31T11:14:59;98624.09;;;24.08;42.41
6194;BME280;3130;41.564;23.280;2023-10-31T11:17:29;98699.44;;;24.49;41.69
6194;BME280;3130;41.564;23.280;2023-10-31T11:19:57;98702.44;;;24.46;41.97
6194;BME280;3130;41.564;23.280;2023-10-31T11:22:24;98697.72;;;24.42;41.85
6194;BME280;3130;41.564;23.280;2023-10-31T11:24:52;98668.00;;;24.20;42.00
6194;BME280;3130;41.564;23.280;2023-10-31T11:27:19;98695.28;;;24.40;41.93
6194;BME280;3130;41.564;23.280;2023-10-31T11:29:47;98693.91;;;24.44;42.24
6194;BME280;3130;41.564;23.280;2023-10-31T11:32:16;98685.59;;;24.41;42.14
6194;BME280;3130;41.564;23.280;2023-10-31T11:34:43;98679.09;;;24.37;42.46
6194;BME280;3130;41.564;23.280;2023-10-31T11:37:23;98659.50;;;24.18;42.66
6194;BME280;3130;41.564;23.280;2023-10-31T11:40:17;98667.09;;;24.28;43.13
6194;BME280;3130;41.564;23.280;2023-10-31T11:42:47;98655.63;;;24.29;43.01
6194;BME280;3130;41.564;23.280;2023-10-31T11:45:26;98652.38;;;24.27;42.92
6194;BME280;3130;41.564;23.280;2023-10-31T11:47:55;98650.72;;;24.26;43.16
6194;BME280;3130;41.564;23.280;2023-10-31T11:50:23;98643.50;;;24.28;43.49
6194;BME280;3130;41.564;23.280;2023-10-31T11:53:05;98645.69;;;24.24;43.37
6194;BME280;3130;41.564;23.280;2023-10-31T11:55:33;98635.38;;;24.23;43.32
6194;BME280;3130;41.564;23.280;2023-10-31T11:58:15;98628.16;;;24.10;43.41
6194;BME280;3130;41.564;23.280;2023-10-31T12:00:42;98587.63;;;23.92;43.49
6194;BME280;3130;41.564;23.280;2023-10-31T12:03:11;98634.09;;;24.33;43.35
6194;BME280;3130;41.564;23.280;2023-10-31T12:05:38;98628.28;;;24.38;44.04
6194;BME280;3130;41.564;23.280;2023-10-31T12:08:05;98615.44;;;24.57;42.54
6194;BME280;3130;41.564;23.280;2023-10-31T12:10:32;98603.75;;;24.59;42.68
6194;BME280;3130;41.564;23.280;2023-10-31T12:12:59;98558.50;;;24.37;42.45
6194;BME280;3130;41.564;23.280;2023-10-31T12:15:26;98586.13;;;24.74;42.69
6194;BME280;3130;41.564;23.280;2023-10-31T12:17:58;98590.47;;;24.88;41.81
6194;BME280;3130;41.564;23.280;2023-10-31T12:20:27;98590.06;;;24.85;41.69
6194;BME280;3130;41.564;23.280;2023-10-31T12:23:03;98585.84;;;24.90;41.83
6194;BME280;3130;41.564;23.280;2023-10-31T12:25:31;98575.97;;;24.92;41.08
6194;BME280;3130;41.564;23.280;2023-10-31T12:28:00;98574.88;;;24.80;39.95
6194;BME280;3130;41.564;23.280;2023-10-31T12:30:27;98579.13;;;24.81;40.80
6194;BME280;3130;41.564;23.280;2023-10-31T12:32:55;98586.81;;;24.83;41.51
6194;BME280;3130;41.564;23.280;2023-10-31T12:35:23;98588.44;;;24.84;40.90
6194;BME280;3130;41.564;23.280;2023-10-31T12:37:52;98598.75;;;24.85;40.90
6194;BME280;3130;41.564;23.280;2023-10-31T12:40:22;98592.94;;;24.90;40.82
6194;BME280;3130;41.564;23.280;2023-10-31T12:42:49;98592.31;;;24.88;40.99
6194;BME280;3130;41.564;23.280;2023-10-31T12:45:18;98594.31;;;24.86;40.81
6194;BME280;3130;41.564;23.280;2023-10-31T12:47:57;98593.31;;;24.87;41.17
6194;BME280;3130;41.564;23.280;2023-10-31T12:50:26;98559.25;;;24.72;40.96
6194;BME280;3130;41.564;23.280;2023-10-31T12:52:55;98573.94;;;24.88;40.86
6194;BME280;3130;41.564;23.280;2023-10-31T12:55:26;98554.28;;;24.77;40.94
6194;BME280;3130;41.564;23.280;2023-10-31T12:57:54;98520.34;;;24.49;41.22
6194;BME280;3130;41.564;23.280;2023-10-31T13:00:22;98553.53;;;24.62;41.46
6194;BME280;3130;41.564;23.280;2023-10-31T13:02:58;98521.69;;;24.45;41.71
6194;BME280;3130;41.564;23.280;2023-10-31T13:05:26;98565.34;;;24.73;41.73
6194;BME280;3130;41.564;23.280;2023-10-31T13:07:56;98567.59;;;24.76;41.81
6194;BME280;3130;41.564;23.280;2023-10-31T13:10:27;98566.38;;;24.78;41.72
6194;BME280;3130;41.564;23.280;2023-10-31T13:12:54;98528.09;;;24.63;41.07